Wednesday, November 21, 2018, 5:45 AM EST
Back to Local

KBUF, Greater Buffalo International Airport

Location: Buffalo, NY, United States Lat: 42.933
Local Time: 5:45 AM EST (10:45 GMT) Lon: -78.733
Time Zone: US/Eastern Elev: 725 ft

Show me the last for .
Show Decoded

2018-11-21 05:11 METAR KBUF 211011Z 26014G22KT 4SM -SN BR OVC033 00/M02 A2991 RMK AO2 P0000
                 T00001017 =
2018-11-21 04:54 METAR KBUF 210954Z 27015G22KT 2 1/2SM -SN BR SCT025 OVC031 00/M02 A2991 RMK AO2
                 SLP136 P0003 T00001017 =
2018-11-21 04:14 METAR KBUF 210914Z 26016G22KT 2SM -SN BR SCT008 SCT015 OVC022 01/M01 A2990 RMK
                 AO2 P0002 T00061011 =
2018-11-21 04:06 METAR KBUF 210906Z 26014G21KT 2SM -SN BR BKN008 BKN015 OVC022 01/M01 A2990 =
2018-11-21 03:54 METAR KBUF 210854Z 24015G24KT 1 1/2SM -SN BR OVC008 01/M01 A2990 RMK AO2 PK WND
                 23026/0803 CIG 005V012 SLP133 P0004 60006 T00061006 56013 =
2018-11-21 03:52 METAR KBUF 210852Z 24013G24KT 1 1/2SM -SN BR BKN008 OVC012 01/M01 A2990 RMK AO2
                 PK WND 23026/0803 CIG 005V010 P0004 =
2018-11-21 03:44 METAR KBUF 210844Z 23014G25KT 1 1/4SM -SN BR OVC010 00/M01 A2990 RMK AO2 PK WND
                 23026/0803 CIG 006V014 P0002 T00001011 =
2018-11-21 03:31 METAR KBUF 210831Z 20015KT 2 1/2SM -SN BR OVC012 00/M02 A2989 RMK AO2 PK WND
                 23026/0803 P0001 T00001017 =
2018-11-21 03:16 METAR KBUF 210816Z 21015KT 3SM -SN BR BKN014 OVC020 00/M02 A2991 RMK AO2 PK WND
                 23026/0803 P0000 T00001022 =
2018-11-21 02:54 METAR KBUF 210754Z 22015G24KT 4SM -SN BR OVC020 M01/M03 A2992 RMK AO2 SLP138
                 P0001 T10061028 =
2018-11-21 01:54 METAR KBUF 210654Z 21013KT 6SM -SN OVC021 M01/M04 A2994 RMK AO2 SLP146 P0001
                 T10061039 =
2018-11-21 00:54 METAR KBUF 210554Z 21013KT 6SM -SN BKN019 BKN029 OVC070 M01/M04 A2997 RMK AO2
                 SNB35 SLP156 P0000 60000 T10061039 11006 21028 58030 =
2018-11-20 23:54 METAR KBUF 210454Z 27006KT 10SM FEW024 FEW040 OVC080 M02/M07 A2999 RMK AO2
                 SLP166 T10171072 400061028 =
2018-11-20 22:54 METAR KBUF 210354Z 26009G17KT 10SM FEW025 FEW035 OVC090 M02/M09 A3003 RMK AO2
                 SLP178 T10221089 =
2018-11-20 21:54 METAR KBUF 210254Z 27014G21KT 10SM FEW035 BKN043 OVC110 M03/M09 A3006 RMK AO2 PK
                 WND 28028/0159 SLP187 60000 T10281089 50004 =
2018-11-20 20:54 METAR KBUF 210154Z 27017G24KT 10SM BKN035 BKN055 OVC110 M02/M07 A3006 RMK AO2 PK
                 WND 29026/0122 SLP189 SNE35 P0000 T10221072 =
2018-11-20 19:54 METAR KBUF 210054Z 27013G22KT 9SM -SN BKN030 OVC040 M01/M07 A3005 RMK AO2 SNB40
                 SLP186 PCPN VRY LGT P0000 T10111067 =
2018-11-20 18:54 METAR KBUF 202354Z 29008KT 10SM FEW034 BKN047 M01/M07 A3004 RMK AO2 SLP183 60000
                 T10111067 10000 21011 50008 =
2018-11-20 17:54 METAR KBUF 202254Z 29011KT 10SM FEW037 BKN047 M01/M07 A3005 RMK AO2 SLP183 SNE25
                 P0000 T10111072 =
2018-11-20 16:54 METAR KBUF 202154Z 28009KT 9SM -SN FEW022 SCT036 BKN050 M01/M06 A3004 RMK AO2
                 SNB27 SLP182 PCPN VRY LGT P0000 T10061061 =
2018-11-20 15:54 METAR KBUF 202054Z 29006KT 10SM FEW020 SCT033 BKN055 00/M04 A3002 RMK AO2 SLP174
                 SHSN DSNT E-S-SW T00001039 53008 =
2018-11-20 15:17 METAR KBUF 202017Z 29011KT 10SM SCT020 SCT033 BKN055 00/M04 A3002 RMK AO2
                 T00001044 =
2018-11-20 14:54 METAR KBUF 201954Z 29010KT 10SM BKN017 BKN030 BKN055 00/M04 A3001 RMK AO2 SLP171
                 T00001044 =
2018-11-20 13:54 METAR KBUF 201854Z 29010KT 10SM BKN015 BKN023 OVC050 00/M03 A3000 RMK AO2 SLP166
                 T00001028 =
2018-11-20 13:48 METAR KBUF 201848Z 31007KT 10SM BKN015 BKN023 OVC050 00/M02 A2999 RMK AO2 =
2018-11-20 13:17 METAR KBUF 201817Z 34007KT 10SM BKN013 BKN021 OVC050 00/M02 A2999 RMK AO2
                 T00001022 =
2018-11-20 12:54 METAR KBUF 201754Z 34007KT 10SM SCT013 SCT055 BKN070 00/M03 A2998 RMK AO2 SNE18
                 SLP161 P0000 60009 T00001028 10006 21006 50008 =
2018-11-20 12:27 METAR KBUF 201727Z 34010KT 10SM SCT011 SCT055 BKN070 00/M02 A2998 RMK AO2 SNE18
                 P0000 T00001022 =
2018-11-20 12:09 METAR KBUF 201709Z COR 33008KT 6SM -SN BR BKN011 BKN019 BKN055 M01/M02 A2998 =
2018-11-20 11:54 METAR KBUF 201654Z 34008KT 2 1/2SM -SN BR BKN009 BKN017 OVC027 M01/M02 A2999 RMK
                 AO2 SLP162 CIG 007V011 P0001 T10061022 =
2018-11-20 11:52 METAR KBUF 201652Z 35008KT 2 1/2SM -SN BR BKN009 BKN017 OVC027 M01/M02 A2999 RMK
                 AO2 CIG 007V011 P0001 =
2018-11-20 11:30 METAR KBUF 201630Z 33008KT 1 1/2SM R23/5500VP6000FT -SN BR BKN007 BKN015 OVC027
                 M01/M02 A2999 RMK AO2 P0000 T10061017 =
2018-11-20 11:12 METAR KBUF 201612Z 34012KT 1 1/2SM -SN BR SCT007 BKN017 OVC027 M01/M02 A2999 RMK
                 AO2 P0000 T10061017 =
2018-11-20 10:54 METAR KBUF 201554Z 33013KT 1SM R23/4500VP6000FT -SN BR BKN007 BKN015 OVC027
                 00/M01 A2999 RMK AO2 SLP162 CIG 005V010 P0002 T00001011 =
2018-11-20 10:38 METAR KBUF 201538Z 34008KT 1 1/4SM R23/5000VP6000FT -SN BR BKN007 BKN015 OVC027
                 00/M01 A2998 =
2018-11-20 09:54 METAR KBUF 201454Z 30007KT 3/4SM R23/4500V5000FT -SN BR BKN005 BKN017 OVC027
                 01/M01 A2996 RMK AO2 SLP153 P0002 60006 T00061006 53012 =
2018-11-20 09:46 METAR KBUF 201446Z 29008KT 3/4SM R23/4500V5000FT -SN BR BKN005 BKN017 OVC027
                 01/M01 A2995 RMK AO2 P0001 T00061006 =
2018-11-20 09:22 METAR KBUF 201422Z 29007KT 1 1/4SM R23/4000V6000FT -SN BR BKN005 OVC017 01/00
                 A2995 RMK AO2 P0001 T00060000 =
2018-11-20 08:54 METAR KBUF 201354Z 28006KT 3/4SM R23/4500V6000FT -SN BR BKN005 OVC015 00/M01
                 A2994 RMK AO2 SLP147 P0002 T00001006 =
2018-11-20 08:22 METAR KBUF 201322Z 28004KT 1 1/2SM R23/4500VP6000FT -SN BR BKN003 OVC017 01/00
                 A2994 RMK AO2 P0001 T00060000 =
2018-11-20 08:05 METAR KBUF 201305Z 28005KT 3/4SM R23/4500V5500FT -SN BR BKN003 OVC019 00/00
                 A2993 RMK AO2 P0000 T00000000 =
2018-11-20 07:54 METAR KBUF 201254Z 26004KT 1SM R23/5000V6000FT -SN BR SCT003 OVC019 00/00 A2993
                 RMK AO2 SLP144 P0002 T00000000 =
2018-11-20 07:44 METAR KBUF 201244Z 26005KT 1SM R23/5000V6000FT -SN BR SCT003 OVC019 00/00 A2993
                 RMK AO2 P0001 T00000000 =
2018-11-20 07:22 METAR KBUF 201222Z 26004KT 1 3/4SM R23/5500VP6000FT -SN BR BKN004 OVC021 01/00
                 A2993 RMK AO2 P0000 T00060000 =
2018-11-20 07:15 METAR KBUF 201215Z 24004KT 2SM -SN BR BKN004 BKN023 OVC040 00/00 A2992 RMK AO2
                 P0000 T00000000 =
2018-11-20 06:54 METAR KBUF 201154Z 24003KT 2 1/2SM -SN BR SCT008 BKN025 OVC040 00/00 A2992 RMK
                 AO2 SLP141 P0001 60001 70001 T00000000 10006 21006 51004 =
2018-11-20 06:52 METAR KBUF 201152Z 24003KT 2SM -SN BR SCT008 BKN025 OVC040 00/M01 A2992 RMK AO2
                 P0001 =
2018-11-20 06:35 METAR KBUF 201135Z 26004KT 2 1/2SM -SN BR BKN009 OVC026 00/M01 A2992 RMK AO2
                 P0000 T00001006 =
2018-11-20 06:27 METAR KBUF 201127Z 27003KT 2 1/2SM -SN BR SCT009 SCT015 OVC026 00/M01 A2992 RMK
                 AO2 P0000 T00001006 =
2018-11-20 06:11 METAR KBUF 201111Z 00000KT 2 1/2SM -SN BR FEW016 OVC028 01/M01 A2992 RMK AO2
                 P0000 T00061011 =
2018-11-20 05:54 METAR KBUF 201054Z 25003KT 5SM -SN BR FEW023 BKN038 OVC046 00/M01 A2992 RMK AO2
                 SNB35 SLP139 P0000 T00001011 =

Support USWX by starting your Amazon purchase here.